createdAt,value
2019-05-10T00:00:20.081Z,6.60
2019-05-10T00:03:05.426Z,7.00
2019-05-10T00:05:50.895Z,6.17
2019-05-10T00:08:36.193Z,5.27
2019-05-10T00:11:33.306Z,6.43
2019-05-10T00:14:25.322Z,6.30
2019-05-10T00:16:54.708Z,6.03
2019-05-10T00:19:21.729Z,6.83
2019-05-10T00:21:48.846Z,5.83
2019-05-10T00:24:15.843Z,6.30
2019-05-10T00:26:43.001Z,6.20
2019-05-10T00:29:10.011Z,6.23
2019-05-10T00:31:37.040Z,6.60
2019-05-10T00:34:04.087Z,6.23
2019-05-10T00:36:31.155Z,6.47
2019-05-10T00:38:58.198Z,6.93
2019-05-10T00:41:25.206Z,6.60
2019-05-10T00:43:52.306Z,6.33
2019-05-10T00:46:19.350Z,6.43
2019-05-10T00:48:46.371Z,6.03
2019-05-10T00:51:13.391Z,6.30
2019-05-10T00:53:40.406Z,7.27
2019-05-10T00:56:07.429Z,6.43
2019-05-10T00:58:34.426Z,6.57
2019-05-10T01:01:01.470Z,5.83
2019-05-10T01:03:28.494Z,7.00
2019-05-10T01:05:55.517Z,6.03
2019-05-10T01:08:22.571Z,6.37
2019-05-10T01:10:49.633Z,6.73
2019-05-10T01:13:16.633Z,5.83
2019-05-10T01:15:46.798Z,5.60
2019-05-10T01:18:12.810Z,5.60
2019-05-10T01:20:39.848Z,7.10
2019-05-10T01:23:06.888Z,7.17
2019-05-10T01:25:35.794Z,7.00
2019-05-10T01:28:03.005Z,6.03
2019-05-10T01:30:30.010Z,6.90
2019-05-10T01:32:57.245Z,4.73
2019-05-10T01:35:24.291Z,5.13
2019-05-10T01:37:51.335Z,5.27
2019-05-10T01:40:18.357Z,5.17
2019-05-10T01:42:45.428Z,5.43
2019-05-10T01:45:12.814Z,4.83
2019-05-10T01:47:39.839Z,5.20
2019-05-10T01:50:06.982Z,4.40
2019-05-10T01:52:34.022Z,3.90
2019-05-10T01:55:01.056Z,4.30
2019-05-10T01:57:28.073Z,3.30
2019-05-10T01:59:55.075Z,3.47
2019-05-10T02:02:22.120Z,3.33
2019-05-10T02:04:49.150Z,3.40
2019-05-10T02:07:16.156Z,2.63
2019-05-10T02:09:43.193Z,2.83
2019-05-10T02:12:10.191Z,2.77
2019-05-10T02:14:37.240Z,2.47
2019-05-10T02:17:04.266Z,2.30
2019-05-10T02:19:31.307Z,2.10
2019-05-10T02:21:58.338Z,1.90
2019-05-10T02:24:25.397Z,2.20
2019-05-10T02:26:52.411Z,1.60
2019-05-10T02:29:19.504Z,1.80
2019-05-10T02:31:46.520Z,1.90
2019-05-10T02:34:13.552Z,2.30
2019-05-10T02:36:40.583Z,1.90
2019-05-10T02:39:07.966Z,2.00
2019-05-10T02:41:34.977Z,2.07
2019-05-10T02:44:02.135Z,2.17
2019-05-10T02:46:29.217Z,2.40
2019-05-10T02:48:56.298Z,2.10
2019-05-10T02:51:23.342Z,2.00
2019-05-10T02:53:50.590Z,2.10
2019-05-10T02:56:30.661Z,2.60
2019-05-10T02:58:48.753Z,2.20
2019-05-10T03:01:19.518Z,2.23
2019-05-10T03:03:49.036Z,2.30
2019-05-10T03:06:18.355Z,2.30
2019-05-10T03:08:50.987Z,2.50
2019-05-10T03:11:18.734Z,2.10
2019-05-10T03:13:49.130Z,2.63
2019-05-10T03:16:19.788Z,2.30
2019-05-10T03:18:48.961Z,2.10
2019-05-10T03:21:16.876Z,2.23
2019-05-10T03:23:44.042Z,2.30
2019-05-10T03:26:11.191Z,2.90
2019-05-10T03:28:38.213Z,3.10
2019-05-10T03:31:05.582Z,3.03
2019-05-10T03:33:32.617Z,2.90
2019-05-10T03:36:02.563Z,2.77
2019-05-10T03:38:29.995Z,3.40
2019-05-10T03:40:57.149Z,3.80
2019-05-10T03:43:24.173Z,3.70
2019-05-10T03:45:51.205Z,3.77
2019-05-10T03:48:18.309Z,4.03
2019-05-10T03:50:45.370Z,4.27
2019-05-10T03:53:12.420Z,5.63
2019-05-10T03:55:39.452Z,4.90
2019-05-10T03:58:06.509Z,3.70
2019-05-10T04:00:33.528Z,3.40
2019-05-10T04:03:03.443Z,4.03
2019-05-10T04:05:30.453Z,3.30
2019-05-10T04:07:57.471Z,2.70
2019-05-10T04:10:24.530Z,2.20
2019-05-10T04:12:51.600Z,2.20
2019-05-10T04:15:22.899Z,2.67
2019-05-10T04:17:50.681Z,2.53
2019-05-10T04:20:17.855Z,2.80
2019-05-10T04:22:44.866Z,2.90
2019-05-10T04:25:12.424Z,2.50
2019-05-10T04:27:39.434Z,2.50
2019-05-10T04:30:06.877Z,3.03
2019-05-10T04:32:33.919Z,2.60
2019-05-10T04:35:01.194Z,3.23
2019-05-10T04:37:28.216Z,3.33
2019-05-10T04:39:55.263Z,3.20
2019-05-10T04:42:22.281Z,3.10
2019-05-10T04:44:53.127Z,2.97
2019-05-10T04:47:18.372Z,2.60
2019-05-10T04:49:45.401Z,2.60
2019-05-10T04:52:12.446Z,2.63
2019-05-10T04:54:39.461Z,2.63
2019-05-10T04:57:06.471Z,2.77
2019-05-10T04:59:33.534Z,2.90
2019-05-10T05:02:00.621Z,2.50
2019-05-10T05:04:27.633Z,2.30
2019-05-10T05:06:54.646Z,2.37
2019-05-10T05:09:21.885Z,2.30
2019-05-10T05:11:48.919Z,2.50
2019-05-10T05:14:15.949Z,2.47
2019-05-10T05:16:42.988Z,2.47
2019-05-10T05:19:10.034Z,2.80
2019-05-10T05:21:37.071Z,2.70
2019-05-10T05:24:04.083Z,2.60
2019-05-10T05:26:31.099Z,2.47
2019-05-10T05:28:58.139Z,2.27
2019-05-10T05:31:25.157Z,2.60
2019-05-10T05:33:52.181Z,2.33
2019-05-10T05:36:19.255Z,2.37
2019-05-10T05:38:47.479Z,2.20
2019-05-10T05:41:15.231Z,2.67
2019-05-10T05:43:46.338Z,2.53
2019-05-10T05:46:14.310Z,3.00
2019-05-10T05:48:40.826Z,2.73
2019-05-10T05:51:08.213Z,2.40
2019-05-10T05:53:41.545Z,2.10
2019-05-10T05:56:12.860Z,2.37
2019-05-10T05:58:38.127Z,2.87
2019-05-10T06:01:02.222Z,2.20
2019-05-10T06:03:29.900Z,2.87
2019-05-10T06:05:57.087Z,2.50
2019-05-10T06:08:25.120Z,2.40
2019-05-10T06:10:58.190Z,2.40
2019-05-10T06:13:29.659Z,2.90
2019-05-10T06:15:52.090Z,2.83
2019-05-10T06:18:19.130Z,2.67
2019-05-10T06:20:46.944Z,2.13
2019-05-10T06:23:17.245Z,2.47
2019-05-10T06:25:44.283Z,2.13
2019-05-10T06:28:25.644Z,2.00
2019-05-10T06:30:40.302Z,2.10
2019-05-10T06:33:12.587Z,2.00
2019-05-10T06:35:36.295Z,2.27
2019-05-10T06:38:03.343Z,2.03
2019-05-10T06:40:35.650Z,2.00
2019-05-10T06:42:59.331Z,2.27
2019-05-10T06:45:26.486Z,1.50
2019-05-10T06:47:53.648Z,1.83
2019-05-10T06:50:29.076Z,1.87
2019-05-10T06:52:51.930Z,1.63
2019-05-10T06:55:18.633Z,2.10
2019-05-10T06:57:49.882Z,1.77
2019-05-10T07:00:14.883Z,1.57
2019-05-10T07:02:41.951Z,1.80
2019-05-10T07:05:08.975Z,1.93
2019-05-10T07:07:43.703Z,1.60
2019-05-10T07:10:13.188Z,1.70
2019-05-10T07:12:34.480Z,1.53
2019-05-10T07:15:03.525Z,2.10
2019-05-10T07:17:30.485Z,1.40
2019-05-10T07:19:57.519Z,1.80
2019-05-10T07:22:26.815Z,1.83
2019-05-10T07:24:57.159Z,1.37
2019-05-10T07:27:22.471Z,1.50
2019-05-10T07:29:49.509Z,1.37
2019-05-10T07:32:21.776Z,1.27
2019-05-10T07:34:48.787Z,1.50
2019-05-10T07:37:14.639Z,1.63
2019-05-10T07:39:41.672Z,1.47
2019-05-10T07:42:09.092Z,1.67
2019-05-10T07:44:36.324Z,1.83
2019-05-10T07:47:03.344Z,1.60
2019-05-10T07:49:32.469Z,1.90
2019-05-10T07:52:02.066Z,2.00
2019-05-10T07:54:28.384Z,1.70
2019-05-10T07:56:55.434Z,1.73
2019-05-10T07:59:28.000Z,1.63
2019-05-10T08:01:51.416Z,1.60
2019-05-10T08:04:19.750Z,2.10
2019-05-10T08:06:51.326Z,1.50
2019-05-10T08:09:16.346Z,1.80
2019-05-10T08:11:43.383Z,1.70
2019-05-10T08:14:11.382Z,1.87
2019-05-10T08:16:38.808Z,1.80
2019-05-10T08:19:05.994Z,1.80
2019-05-10T08:21:33.057Z,1.80
2019-05-10T08:24:05.153Z,1.90
2019-05-10T08:26:28.990Z,2.00
2019-05-10T08:28:56.037Z,2.67
2019-05-10T08:31:25.899Z,3.03
2019-05-10T08:33:56.402Z,1.90
2019-05-10T08:36:21.914Z,2.53
2019-05-10T08:39:03.107Z,1.90
2019-05-10T08:41:18.501Z,1.63
2019-05-10T08:43:45.615Z,2.00
2019-05-10T08:46:13.001Z,2.00
2019-05-10T08:48:46.720Z,1.97
2019-05-10T08:51:09.087Z,2.10
2019-05-10T08:53:36.105Z,2.20
2019-05-10T08:56:07.679Z,2.90
2019-05-10T08:58:36.983Z,2.50
2019-05-10T09:01:16.238Z,2.20
2019-05-10T09:03:32.080Z,2.80
2019-05-10T09:06:05.388Z,2.50
2019-05-10T09:08:31.546Z,2.47
2019-05-10T09:10:56.905Z,2.67
2019-05-10T09:13:28.867Z,2.20
2019-05-10T09:15:56.777Z,2.40
2019-05-10T09:18:23.033Z,2.23
2019-05-10T09:20:51.850Z,2.20
2019-05-10T09:23:22.230Z,2.70
2019-05-10T09:25:47.997Z,2.03
2019-05-10T09:28:16.989Z,2.17
2019-05-10T09:30:56.541Z,2.67
2019-05-10T09:33:14.339Z,2.13
2019-05-10T09:35:47.090Z,2.40
2019-05-10T09:38:12.546Z,2.30
2019-05-10T09:40:50.173Z,2.13
2019-05-10T09:43:09.736Z,2.40
2019-05-10T09:45:37.555Z,2.20
2019-05-10T09:48:04.567Z,2.40
2019-05-10T09:50:41.045Z,2.00
2019-05-10T09:53:00.593Z,1.87
2019-05-10T09:55:28.071Z,2.10
2019-05-10T09:57:55.258Z,1.83
2019-05-10T10:00:31.283Z,1.73
2019-05-10T10:03:01.629Z,2.30
2019-05-10T10:05:27.352Z,2.10
2019-05-10T10:07:54.425Z,2.20
2019-05-10T10:10:29.351Z,2.03
2019-05-10T10:12:50.389Z,2.23
2019-05-10T10:15:28.346Z,2.10
2019-05-10T10:17:47.749Z,2.10
2019-05-10T10:20:14.875Z,1.93
2019-05-10T10:22:43.407Z,2.03
2019-05-10T10:25:11.059Z,2.70
2019-05-10T10:27:39.532Z,1.90
2019-05-10T10:30:12.699Z,2.13
2019-05-10T10:32:37.593Z,1.90
2019-05-10T10:35:07.642Z,1.63
2019-05-10T10:37:34.216Z,2.33
2019-05-10T10:40:05.433Z,2.30
2019-05-10T10:42:30.184Z,1.90
2019-05-10T10:44:57.220Z,2.30
2019-05-10T10:47:28.341Z,2.30
2019-05-10T10:49:53.202Z,2.10
2019-05-10T10:52:20.331Z,2.07
2019-05-10T10:54:48.013Z,2.20
2019-05-10T10:57:15.124Z,2.07
2019-05-10T10:59:42.159Z,1.90
2019-05-10T11:02:32.043Z,1.97
2019-05-10T11:04:40.620Z,2.20
2019-05-10T11:07:10.278Z,2.33
2019-05-10T11:09:35.948Z,2.20
2019-05-10T11:12:02.963Z,2.83
2019-05-10T11:14:31.971Z,2.10
2019-05-10T11:17:01.074Z,2.00
2019-05-10T11:19:27.860Z,1.83
2019-05-10T11:21:54.871Z,2.23
2019-05-10T11:24:22.883Z,1.93
2019-05-10T11:26:51.672Z,2.10
2019-05-10T11:29:22.972Z,1.80
2019-05-10T11:31:53.671Z,1.97
2019-05-10T11:34:16.814Z,1.93
2019-05-10T11:36:45.940Z,1.73
2019-05-10T11:39:25.613Z,1.70
2019-05-10T11:41:41.736Z,2.77
2019-05-10T11:44:11.726Z,2.10
2019-05-10T11:46:37.678Z,2.00
2019-05-10T11:49:04.766Z,2.27
2019-05-10T11:51:31.829Z,2.27
2019-05-10T11:53:59.795Z,1.93
2019-05-10T11:56:27.924Z,2.03
2019-05-10T11:58:55.698Z,2.10
2019-05-10T12:01:22.781Z,2.40
2019-05-10T12:03:49.798Z,2.10
2019-05-10T12:06:16.820Z,2.23
2019-05-10T12:08:43.854Z,1.90
2019-05-10T12:11:25.473Z,2.10
2019-05-10T12:13:39.806Z,2.30
2019-05-10T12:16:06.837Z,2.30
2019-05-10T12:18:36.267Z,2.23
2019-05-10T12:21:09.410Z,2.07
2019-05-10T12:23:31.862Z,2.17
2019-05-10T12:27:12.988Z,2.37
2019-05-10T12:28:29.992Z,2.00
2019-05-10T12:30:56.703Z,2.00
2019-05-10T12:33:25.779Z,1.90
2019-05-10T12:35:52.695Z,1.87
2019-05-10T12:38:23.659Z,2.57
2019-05-10T12:40:51.194Z,2.03
2019-05-10T12:43:17.560Z,1.77
2019-05-10T12:45:44.630Z,2.20
2019-05-10T12:48:11.638Z,1.90
2019-05-10T12:50:38.670Z,2.27
2019-05-10T12:53:14.364Z,2.07
2019-05-10T12:55:34.649Z,1.93
2019-05-10T12:58:01.664Z,1.60
2019-05-10T13:00:28.800Z,1.77
2019-05-10T13:03:10.299Z,2.07
2019-05-10T13:05:31.234Z,1.90
2019-05-10T13:07:53.658Z,2.00
2019-05-10T13:10:20.718Z,1.60
2019-05-10T13:12:47.782Z,1.83
2019-05-10T13:15:15.020Z,1.73
2019-05-10T13:17:50.609Z,2.10
2019-05-10T13:20:11.548Z,1.80
2019-05-10T13:22:39.501Z,7.20
2019-05-10T13:25:07.017Z,2.00
2019-05-10T13:27:34.037Z,2.00
2019-05-10T13:30:01.073Z,2.07
2019-05-10T13:32:28.104Z,1.80
2019-05-10T13:34:55.120Z,1.80
2019-05-10T13:37:24.738Z,1.67
2019-05-10T13:39:51.080Z,2.13
2019-05-10T13:42:18.063Z,1.53
2019-05-10T13:44:45.155Z,2.00
2019-05-10T13:47:12.262Z,1.83
2019-05-10T13:49:39.375Z,1.97
2019-05-10T13:52:06.498Z,1.80
2019-05-10T13:54:36.158Z,2.37
2019-05-10T13:57:03.740Z,2.13
2019-05-10T13:59:30.802Z,1.90
2019-05-10T14:01:57.827Z,1.97
2019-05-10T14:04:24.872Z,1.80
2019-05-10T14:06:51.989Z,2.07
2019-05-10T14:09:21.082Z,1.77
2019-05-10T14:11:47.927Z,2.13
2019-05-10T14:14:20.424Z,1.87
2019-05-10T14:16:43.893Z,1.90
2019-05-10T14:19:15.925Z,1.77
2019-05-10T14:21:39.940Z,1.97
2019-05-10T14:24:09.182Z,1.70
2019-05-10T14:26:35.864Z,1.50
2019-05-10T14:29:02.912Z,1.80
2019-05-10T14:31:29.946Z,2.07
2019-05-10T14:36:25.943Z,2.17
2019-05-10T14:38:54.166Z,1.70
2019-05-10T14:41:21.917Z,1.73
2019-05-10T14:43:48.937Z,1.43
2019-05-10T14:46:15.952Z,2.30
2019-05-10T14:48:43.019Z,1.87
2019-05-10T14:51:11.986Z,2.00
2019-05-10T14:53:39.048Z,1.90
2019-05-10T14:56:07.866Z,1.73
2019-05-10T14:58:35.194Z,1.67
2019-05-10T15:01:02.247Z,1.80
2019-05-10T15:03:29.259Z,1.53
2019-05-10T15:06:00.925Z,1.70
2019-05-10T15:08:25.244Z,1.70
2019-05-10T15:10:52.283Z,1.83
2019-05-10T15:13:25.136Z,1.80
2019-05-10T15:15:48.278Z,1.80
2019-05-10T15:18:15.301Z,1.57
2019-05-10T15:20:42.315Z,1.80
2019-05-10T15:23:09.389Z,2.23
2019-05-10T15:25:36.430Z,2.13
2019-05-10T15:28:03.461Z,1.70
2019-05-10T15:30:30.493Z,1.87
2019-05-10T15:32:57.494Z,1.60
2019-05-10T15:35:24.519Z,1.73
2019-05-10T15:37:51.563Z,1.80
2019-05-10T15:40:18.589Z,1.70
2019-05-10T15:42:45.603Z,2.10
2019-05-10T15:45:14.691Z,1.70
2019-05-10T15:47:50.857Z,1.80
2019-05-10T15:50:11.154Z,1.70
2019-05-10T15:52:39.560Z,1.70
2019-05-10T15:55:07.315Z,1.77
2019-05-10T15:57:34.326Z,1.77
2019-05-10T16:00:01.408Z,1.70
2019-05-10T16:02:28.447Z,1.77
2019-05-10T16:04:55.467Z,2.10
2019-05-10T16:07:22.484Z,2.10
2019-05-10T16:09:53.825Z,1.80
2019-05-10T16:12:18.438Z,1.87
2019-05-10T16:14:45.921Z,1.87
2019-05-10T16:17:17.077Z,1.97
2019-05-10T16:19:42.145Z,1.73
2019-05-10T16:22:09.233Z,2.00
2019-05-10T16:24:36.256Z,1.80
2019-05-10T16:27:03.322Z,1.90
2019-05-10T16:29:33.679Z,1.40
2019-05-10T16:31:59.307Z,1.77
2019-05-10T16:34:31.915Z,1.80
2019-05-10T16:36:55.248Z,1.50
2019-05-10T16:39:23.183Z,1.40
2019-05-10T16:41:50.279Z,1.80
2019-05-10T16:44:17.297Z,1.80
2019-05-10T16:46:44.317Z,1.70
2019-05-10T16:49:15.603Z,1.90
2019-05-10T16:51:42.265Z,2.07
2019-05-10T16:54:12.983Z,1.63
2019-05-10T16:56:38.247Z,1.50
2019-05-10T16:59:05.246Z,2.90
2019-05-10T17:01:33.639Z,1.57
2019-05-10T17:04:01.831Z,1.60
2019-05-10T17:06:28.949Z,1.67
2019-05-10T17:08:55.993Z,1.77
2019-05-10T17:11:22.999Z,1.73
2019-05-10T17:13:50.032Z,1.80
2019-05-10T17:16:18.815Z,1.53
2019-05-10T17:18:50.041Z,1.90
2019-05-10T17:21:14.994Z,1.87
2019-05-10T17:23:46.856Z,1.60
2019-05-10T17:26:11.070Z,1.80
2019-05-10T17:28:38.105Z,1.77
2019-05-10T17:31:07.719Z,1.50
2019-05-10T17:33:36.664Z,1.60
2019-05-10T17:36:08.291Z,1.90
2019-05-10T17:38:31.957Z,1.90
2019-05-10T17:40:58.985Z,1.70
2019-05-10T17:43:26.046Z,1.97
2019-05-10T17:45:53.074Z,1.80
2019-05-10T17:48:20.082Z,1.70
2019-05-10T17:50:47.132Z,1.70
2019-05-10T17:53:14.268Z,1.90
2019-05-10T17:55:41.299Z,1.80
2019-05-10T17:58:08.329Z,2.00
2019-05-10T18:00:35.420Z,1.50
2019-05-10T18:03:02.456Z,1.80
2019-05-10T18:05:29.488Z,1.53
2019-05-10T18:07:56.557Z,2.03
2019-05-10T18:10:23.568Z,1.77
2019-05-10T18:12:50.582Z,1.50
2019-05-10T18:15:18.113Z,1.77
2019-05-10T18:17:45.135Z,1.50
2019-05-10T18:20:13.985Z,1.67
2019-05-10T18:22:45.055Z,1.50
2019-05-10T18:25:19.261Z,1.63
2019-05-10T18:27:38.972Z,1.60
2019-05-10T18:30:07.245Z,1.57
2019-05-10T18:32:35.548Z,1.70
2019-05-10T18:35:13.776Z,2.23
2019-05-10T18:37:32.649Z,1.50
2019-05-10T18:39:59.672Z,1.73
2019-05-10T18:42:27.998Z,1.70
2019-05-10T18:44:55.248Z,1.70
2019-05-10T18:47:22.278Z,1.83
2019-05-10T18:49:49.292Z,1.53
2019-05-10T18:52:16.347Z,1.30
2019-05-10T18:54:43.403Z,1.97
2019-05-10T18:57:11.571Z,1.40
2019-05-10T18:59:39.846Z,1.40
2019-05-10T19:02:11.862Z,1.80
2019-05-10T19:04:37.232Z,1.97
2019-05-10T19:07:09.822Z,1.40
2019-05-10T19:09:33.244Z,1.73
2019-05-10T19:12:00.402Z,1.30
2019-05-10T19:14:29.743Z,1.50
2019-05-10T19:16:56.410Z,1.70
2019-05-10T19:19:23.473Z,1.93
2019-05-10T19:21:50.498Z,1.80
2019-05-10T19:24:17.522Z,1.70
2019-05-10T19:26:44.582Z,1.83
2019-05-10T19:29:11.588Z,1.20
2019-05-10T19:31:40.357Z,1.73
2019-05-10T19:34:09.041Z,1.50
2019-05-10T19:36:36.510Z,1.47
2019-05-10T19:39:05.672Z,1.70
2019-05-10T19:41:32.740Z,1.60
2019-05-10T19:44:02.702Z,1.90
2019-05-10T19:46:30.112Z,1.90
2019-05-10T19:48:57.648Z,1.57
2019-05-10T19:51:24.687Z,1.40
2019-05-10T19:53:51.797Z,1.40
2019-05-10T19:56:18.835Z,1.30
2019-05-10T19:58:49.066Z,1.47
2019-05-10T20:01:14.794Z,1.53
2019-05-10T20:03:41.811Z,1.40
2019-05-10T20:06:08.847Z,1.60
2019-05-10T20:08:35.861Z,1.60
2019-05-10T20:11:02.909Z,1.20
2019-05-10T20:13:29.945Z,1.40
2019-05-10T20:15:56.988Z,1.50
2019-05-10T20:18:24.034Z,1.27
2019-05-10T20:20:51.063Z,1.10
2019-05-10T20:23:18.087Z,1.27
2019-05-10T20:25:45.172Z,1.23
2019-05-10T20:28:12.190Z,1.33
2019-05-10T20:30:39.208Z,1.03
2019-05-10T20:33:06.235Z,1.00
2019-05-10T20:35:33.273Z,1.30
2019-05-10T20:38:02.328Z,1.30
2019-05-10T20:40:29.238Z,1.30
2019-05-10T20:42:56.247Z,1.20
2019-05-10T20:45:23.300Z,1.20
2019-05-10T20:47:50.337Z,1.20
2019-05-10T20:50:17.362Z,1.30
2019-05-10T20:52:44.432Z,1.40
2019-05-10T20:55:12.083Z,1.30
2019-05-10T20:57:39.101Z,1.30
2019-05-10T21:00:06.574Z,1.30
2019-05-10T21:02:33.604Z,1.40
2019-05-10T21:05:00.638Z,1.40
2019-05-10T21:07:27.690Z,2.57
2019-05-10T21:09:54.721Z,2.57
2019-05-10T21:12:21.763Z,2.73
2019-05-10T21:14:48.817Z,2.40
2019-05-10T21:17:15.837Z,2.00
2019-05-10T21:19:42.858Z,1.80
2019-05-10T21:22:13.118Z,1.50
2019-05-10T21:24:40.166Z,1.70
2019-05-10T21:27:07.191Z,1.60
2019-05-10T21:29:34.228Z,1.40
2019-05-10T21:32:01.252Z,1.70
2019-05-10T21:34:28.258Z,1.80
2019-05-10T21:36:55.323Z,1.70
2019-05-10T21:39:22.353Z,1.57
2019-05-10T21:41:49.401Z,1.80
2019-05-10T21:44:16.456Z,1.67
2019-05-10T21:46:43.501Z,1.63
2019-05-10T21:49:10.514Z,1.97
2019-05-10T21:51:37.560Z,1.70
2019-05-10T21:54:04.646Z,2.03
2019-05-10T21:56:35.479Z,1.63
2019-05-10T21:59:00.632Z,1.40
2019-05-10T22:01:27.648Z,1.70
2019-05-10T22:03:54.901Z,1.70
2019-05-10T22:06:21.935Z,1.70
2019-05-10T22:08:49.850Z,1.37
2019-05-10T22:11:17.087Z,1.47
2019-05-10T22:13:44.118Z,1.80
2019-05-10T22:16:11.126Z,1.63
2019-05-10T22:18:38.155Z,1.67
2019-05-10T22:21:05.306Z,1.80
2019-05-10T22:23:32.321Z,1.80
2019-05-10T22:25:59.343Z,1.80
2019-05-10T22:28:26.378Z,1.80
2019-05-10T22:30:53.407Z,1.70
2019-05-10T22:33:20.483Z,2.07
2019-05-10T22:35:47.494Z,1.70
2019-05-10T22:38:14.554Z,1.67
2019-05-10T22:40:41.599Z,1.20
2019-05-10T22:43:08.613Z,1.50
2019-05-10T22:45:35.645Z,1.70
2019-05-10T22:48:02.670Z,1.60
2019-05-10T22:50:29.722Z,1.40
2019-05-10T22:52:56.819Z,1.53
2019-05-10T22:55:23.837Z,1.53
2019-05-10T22:57:50.983Z,1.70
2019-05-10T23:00:18.501Z,1.83
2019-05-10T23:02:45.553Z,1.50
2019-05-10T23:05:12.625Z,1.83
2019-05-10T23:07:39.674Z,1.80
2019-05-10T23:10:07.203Z,1.70
2019-05-10T23:12:34.251Z,1.87
2019-05-10T23:15:01.339Z,2.00
2019-05-10T23:17:28.449Z,1.60
2019-05-10T23:19:55.450Z,1.60
2019-05-10T23:22:22.467Z,1.77
2019-05-10T23:24:49.493Z,1.87
2019-05-10T23:27:16.529Z,1.70
2019-05-10T23:29:43.578Z,1.50
2019-05-10T23:32:10.607Z,1.63
2019-05-10T23:34:37.663Z,1.40
2019-05-10T23:37:04.660Z,1.90
2019-05-10T23:39:40.356Z,1.80
2019-05-10T23:42:00.675Z,1.80
2019-05-10T23:44:27.685Z,1.90
2019-05-10T23:46:54.707Z,1.70
2019-05-10T23:49:21.773Z,2.00
2019-05-10T23:51:48.829Z,1.97
2019-05-10T23:54:15.947Z,2.40
2019-05-10T23:56:42.961Z,1.80
2019-05-10T23:59:10.042Z,2.10
